Terminal Aerodrome Forecast
Issued by NWS

Home | Current Version | Previous Version | Text Only | Print | Product List | Glossary On
Versions: 1 2 3 4 5 6 7 8 9 10 11 12 13 14 15 16 17 18
000
FTUS43 KDVN 301700
TAFBRL
TAF
KBRL 301722Z 3018/3118 31007KT P6SM SCT035
     FM302100 32007KT P6SM BKN035
     FM310200 31003KT P6SM SCT070
     FM311000 30003KT 6SM BR FEW010
     FM311500 26006KT P6SM FEW040=

USA.gov is the U.S. government's official web portal to all federal, state and local government web resources and services.